createdAt,value
2018-12-11T00:00:48.989Z,23.40
2018-12-11T00:03:14.722Z,23.60
2018-12-11T00:05:41.045Z,23.13
2018-12-11T00:08:06.774Z,20.15
2018-12-11T00:10:32.487Z,20.47
2018-12-11T00:12:58.214Z,21.70
2018-12-11T00:15:24.031Z,21.90
2018-12-11T00:17:49.739Z,19.90
2018-12-11T00:20:15.555Z,25.20
2018-12-11T00:22:41.271Z,18.43
2018-12-11T00:25:07.188Z,16.10
2018-12-11T00:27:33.011Z,18.60
2018-12-11T00:29:58.726Z,22.20
2018-12-11T00:32:24.467Z,20.83
2018-12-11T00:34:50.187Z,22.00
2018-12-11T00:37:16.132Z,19.07
2018-12-11T00:39:41.842Z,18.33
2018-12-11T00:42:07.571Z,24.33
2018-12-11T00:44:33.283Z,18.60
2018-12-11T00:46:58.994Z,30.47
2018-12-11T00:49:24.721Z,26.90
2018-12-11T00:51:50.521Z,21.40
2018-12-11T00:54:16.232Z,22.17
2018-12-11T00:56:41.941Z,20.17
2018-12-11T00:59:07.650Z,22.33
2018-12-11T01:01:33.454Z,22.70
2018-12-11T01:03:59.169Z,22.43
2018-12-11T01:06:24.977Z,22.20
2018-12-11T01:08:50.693Z,22.80
2018-12-11T01:11:16.418Z,21.50
2018-12-11T01:13:42.245Z,17.43
2018-12-11T01:16:08.083Z,24.07
2018-12-11T01:18:33.907Z,20.23
2018-12-11T01:20:59.833Z,20.53
2018-12-11T01:23:25.648Z,20.60
2018-12-11T01:25:51.350Z,25.13
2018-12-11T01:28:17.066Z,23.97
2018-12-11T01:30:42.892Z,18.03
2018-12-11T01:33:08.606Z,21.67
2018-12-11T01:35:34.311Z,19.13
2018-12-11T01:38:00.032Z,21.90
2018-12-11T01:40:25.849Z,19.73
2018-12-11T01:42:51.672Z,18.43
2018-12-11T01:45:17.442Z,20.93
2018-12-11T01:47:43.151Z,22.03
2018-12-11T01:50:08.966Z,20.37
2018-12-11T01:52:34.790Z,19.70
2018-12-11T01:55:00.508Z,20.50
2018-12-11T01:57:26.315Z,22.70
2018-12-11T01:59:52.036Z,13.07
2018-12-11T02:02:17.840Z,22.50
2018-12-11T02:04:43.559Z,17.77
2018-12-11T02:07:09.275Z,24.47
2018-12-11T02:09:35.152Z,19.17
2018-12-11T02:12:01.028Z,19.40
2018-12-11T02:14:26.859Z,21.53
2018-12-11T02:16:52.657Z,23.10
2018-12-11T02:19:18.378Z,22.33
2018-12-11T02:21:44.192Z,23.13
2018-12-11T02:24:09.917Z,15.67
2018-12-11T02:26:35.634Z,20.27
2018-12-11T02:29:01.593Z,14.40
2018-12-11T02:31:27.511Z,20.40
2018-12-11T02:33:53.327Z,18.80
2018-12-11T02:36:19.150Z,17.70
2018-12-11T02:38:44.966Z,17.73
2018-12-11T02:41:10.711Z,16.53
2018-12-11T02:43:36.519Z,19.10
2018-12-11T02:46:02.248Z,22.47
2018-12-11T02:48:35.078Z,18.77
2018-12-11T02:51:00.800Z,12.82
2018-12-11T02:53:26.519Z,18.63
2018-12-11T02:55:52.248Z,19.97
2018-12-11T02:58:18.170Z,16.17
2018-12-11T03:00:43.895Z,20.40
2018-12-11T03:03:09.613Z,16.30
2018-12-11T03:05:35.336Z,15.40
2018-12-11T03:08:01.042Z,16.77
2018-12-11T03:10:26.879Z,15.53
2018-12-11T03:12:52.583Z,22.93
2018-12-11T03:15:18.322Z,18.13
2018-12-11T03:17:44.127Z,9.73
2018-12-11T03:20:09.838Z,15.07
2018-12-11T03:22:35.546Z,16.17
2018-12-11T03:25:01.394Z,16.37
2018-12-11T03:27:27.201Z,17.97
2018-12-11T03:29:52.902Z,21.57
2018-12-11T03:32:18.723Z,21.47
2018-12-11T03:34:44.530Z,18.97
2018-12-11T03:37:10.252Z,15.00
2018-12-11T03:39:36.066Z,14.70
2018-12-11T03:42:01.926Z,13.60
2018-12-11T03:44:27.741Z,15.50
2018-12-11T03:46:53.674Z,15.67
2018-12-11T03:49:19.494Z,13.53
2018-12-11T03:51:45.315Z,11.60
2018-12-11T03:54:11.244Z,13.77
2018-12-11T03:56:37.075Z,15.20
2018-12-11T03:59:02.998Z,19.93
2018-12-11T04:01:28.950Z,13.87
2018-12-11T04:03:54.990Z,16.65
2018-12-11T04:06:20.806Z,18.87
2018-12-11T04:08:46.619Z,18.50
2018-12-11T04:11:12.398Z,9.23
2018-12-11T04:13:38.142Z,16.40
2018-12-11T04:16:04.094Z,15.90
2018-12-11T04:18:29.966Z,17.60
2018-12-11T04:20:55.802Z,11.13
2018-12-11T04:23:21.542Z,11.60
2018-12-11T04:25:47.271Z,11.53
2018-12-11T04:28:13.092Z,13.20
2018-12-11T04:30:38.838Z,11.93
2018-12-11T04:33:04.577Z,15.23
2018-12-11T04:35:30.302Z,16.87
2018-12-11T04:37:56.039Z,12.77
2018-12-11T04:40:21.875Z,14.30
2018-12-11T04:42:47.635Z,14.13
2018-12-11T04:45:13.475Z,15.17
2018-12-11T04:47:39.345Z,12.20
2018-12-11T04:50:05.267Z,13.77
2018-12-11T04:52:30.998Z,9.77
2018-12-11T04:54:56.755Z,13.27
2018-12-11T04:57:22.490Z,14.33
2018-12-11T04:59:48.217Z,8.97
2018-12-11T05:02:14.046Z,12.20
2018-12-11T05:04:39.782Z,14.13
2018-12-11T05:07:05.522Z,13.03
2018-12-11T05:09:31.458Z,12.77
2018-12-11T05:11:57.194Z,11.00
2018-12-11T05:14:22.931Z,15.87
2018-12-11T05:16:48.746Z,12.73
2018-12-11T05:19:14.630Z,12.30
2018-12-11T05:21:40.408Z,11.10
2018-12-11T05:24:06.135Z,11.53
2018-12-11T05:26:31.859Z,11.50
2018-12-11T05:28:57.705Z,12.83
2018-12-11T05:31:23.539Z,10.60
2018-12-11T05:33:49.471Z,16.23
2018-12-11T05:36:15.206Z,14.00
2018-12-11T05:38:40.939Z,11.83
2018-12-11T05:41:06.753Z,14.20
2018-12-11T05:43:39.579Z,9.50
2018-12-11T05:46:05.471Z,13.03
2018-12-11T05:48:31.352Z,6.22
2018-12-11T05:50:57.062Z,13.27
2018-12-11T05:53:22.892Z,10.13
2018-12-11T05:55:48.618Z,6.73
2018-12-11T05:58:14.323Z,8.20
2018-12-11T06:00:40.169Z,7.60
2018-12-11T06:03:05.887Z,6.20
2018-12-11T06:05:31.630Z,13.57
2018-12-11T06:07:57.373Z,13.43
2018-12-11T06:10:23.130Z,10.80
2018-12-11T06:12:48.854Z,10.00
2018-12-11T06:15:14.595Z,12.23
2018-12-11T06:17:40.316Z,7.83
2018-12-11T06:20:06.270Z,9.57
2018-12-11T06:22:32.123Z,9.70
2018-12-11T06:24:57.867Z,12.43
2018-12-11T06:27:23.674Z,10.83
2018-12-11T06:29:49.405Z,14.10
2018-12-11T06:32:15.255Z,8.17
2018-12-11T06:34:40.993Z,10.77
2018-12-11T06:37:06.806Z,6.73
2018-12-11T06:39:32.549Z,7.20
2018-12-11T06:41:58.406Z,10.93
2018-12-11T06:44:24.152Z,10.57
2018-12-11T06:46:49.876Z,10.93
2018-12-11T06:49:15.623Z,10.90
2018-12-11T06:51:41.460Z,10.17
2018-12-11T06:54:07.195Z,12.53
2018-12-11T06:56:33.141Z,12.03
2018-12-11T06:58:58.855Z,11.30
2018-12-11T07:01:24.570Z,6.97
2018-12-11T07:03:50.366Z,8.90
2018-12-11T07:06:16.114Z,8.77
2018-12-11T07:08:41.956Z,8.67
2018-12-11T07:11:07.898Z,10.40
2018-12-11T07:13:33.635Z,9.47
2018-12-11T07:15:59.400Z,8.27
2018-12-11T07:18:26.053Z,8.57
2018-12-11T07:20:52.000Z,10.15
2018-12-11T07:23:17.710Z,9.97
2018-12-11T07:25:43.567Z,11.03
2018-12-11T07:28:09.285Z,8.17
2018-12-11T07:30:35.059Z,7.50
2018-12-11T07:33:07.726Z,10.67
2018-12-11T07:35:33.499Z,9.53
2018-12-11T07:37:59.253Z,7.30
2018-12-11T07:40:25.090Z,10.43
2018-12-11T07:42:50.810Z,9.63
2018-12-11T07:45:16.553Z,10.23
2018-12-11T07:47:42.275Z,8.87
2018-12-11T07:50:08.115Z,8.90
2018-12-11T07:52:33.930Z,9.57
2018-12-11T07:55:06.823Z,5.10
2018-12-11T07:57:32.654Z,7.03
2018-12-11T08:00:06.606Z,8.93
2018-12-11T08:02:32.315Z,8.85
2018-12-11T08:04:58.047Z,7.03
2018-12-11T08:07:23.778Z,7.67
2018-12-11T08:09:49.522Z,9.00
2018-12-11T08:12:15.253Z,9.10
2018-12-11T08:14:40.961Z,9.13
2018-12-11T08:17:06.688Z,6.17
2018-12-11T08:19:32.429Z,6.77
2018-12-11T08:21:58.248Z,7.40
2018-12-11T08:24:24.089Z,7.50
2018-12-11T08:26:50.020Z,6.23
2018-12-11T08:29:15.837Z,6.17
2018-12-11T08:31:41.591Z,5.83
2018-12-11T08:34:07.311Z,11.20
2018-12-11T08:36:33.039Z,6.50
2018-12-11T08:38:58.746Z,5.10
2018-12-11T08:41:24.471Z,4.70
2018-12-11T08:43:50.207Z,5.37
2018-12-11T08:46:15.947Z,7.77
2018-12-11T08:48:41.659Z,7.50
2018-12-11T08:51:07.589Z,5.73
2018-12-11T08:53:33.310Z,5.70
2018-12-11T08:55:59.032Z,6.23
2018-12-11T08:58:24.786Z,4.60
2018-12-11T09:00:51.461Z,6.60
2018-12-11T09:03:17.269Z,6.62
2018-12-11T09:05:42.992Z,6.83
2018-12-11T09:08:08.711Z,7.00
2018-12-11T09:10:34.526Z,8.53
2018-12-11T09:13:00.259Z,7.07
2018-12-11T09:15:25.975Z,5.03
2018-12-11T09:17:51.698Z,6.57
2018-12-11T09:20:17.420Z,7.17
2018-12-11T09:22:43.139Z,4.50
2018-12-11T09:25:08.954Z,4.33
2018-12-11T09:27:34.715Z,4.53
2018-12-11T09:30:00.443Z,7.03
2018-12-11T09:32:26.178Z,7.23
2018-12-11T09:34:51.925Z,11.60
2018-12-11T09:37:17.691Z,6.50
2018-12-11T09:39:43.411Z,7.13
2018-12-11T09:42:09.150Z,7.47
2018-12-11T09:44:34.862Z,13.60
2018-12-11T09:47:00.596Z,3.40
2018-12-11T09:49:26.420Z,4.23
2018-12-11T09:51:52.234Z,6.40
2018-12-11T09:54:18.058Z,7.50
2018-12-11T09:56:43.877Z,4.87
2018-12-11T09:59:09.629Z,5.27
2018-12-11T10:01:35.355Z,7.70
2018-12-11T10:04:01.209Z,6.07
2018-12-11T10:06:26.949Z,7.77
2018-12-11T10:08:54.694Z,4.73
2018-12-11T10:11:20.418Z,6.87
2018-12-11T10:13:46.163Z,8.87
2018-12-11T10:16:11.883Z,9.80
2018-12-11T10:18:37.623Z,5.37
2018-12-11T10:21:03.443Z,6.37
2018-12-11T10:23:31.969Z,8.10
2018-12-11T10:25:57.418Z,7.75
2018-12-11T10:28:23.162Z,10.87
2018-12-11T10:30:48.902Z,5.33
2018-12-11T10:33:14.862Z,5.27
2018-12-11T10:35:40.590Z,7.00
2018-12-11T10:38:06.326Z,11.00
2018-12-11T10:40:32.048Z,6.47
2018-12-11T10:42:57.770Z,5.17
2018-12-11T10:45:23.618Z,5.17
2018-12-11T10:47:49.358Z,4.73
2018-12-11T10:50:15.171Z,6.90
2018-12-11T10:52:41.030Z,5.33
2018-12-11T10:55:06.842Z,4.20
2018-12-11T10:57:32.643Z,4.97
2018-12-11T10:59:58.369Z,4.10
2018-12-11T11:02:26.201Z,6.70
2018-12-11T11:04:51.923Z,5.65
2018-12-11T11:07:17.843Z,6.57
2018-12-11T11:09:43.571Z,7.20
2018-12-11T11:12:09.402Z,7.90
2018-12-11T11:14:35.331Z,4.77
2018-12-11T11:17:01.247Z,7.90
2018-12-11T11:19:26.974Z,2.90
2018-12-11T11:21:52.687Z,4.40
2018-12-11T11:24:18.510Z,6.03
2018-12-11T11:26:44.232Z,5.50
2018-12-11T11:29:09.959Z,4.70
2018-12-11T11:31:42.699Z,4.73
2018-12-11T11:34:08.551Z,5.50
2018-12-11T11:36:34.371Z,5.20
2018-12-11T11:39:00.108Z,6.20
2018-12-11T11:41:25.964Z,4.63
2018-12-11T11:43:51.694Z,6.87
2018-12-11T11:46:17.406Z,6.70
2018-12-11T11:48:43.142Z,7.83
2018-12-11T11:51:08.860Z,5.00
2018-12-11T11:53:34.706Z,8.13
2018-12-11T11:56:00.450Z,5.83
2018-12-11T11:58:26.298Z,5.87
2018-12-11T12:00:52.146Z,3.50
2018-12-11T12:03:17.861Z,4.17
2018-12-11T12:05:43.582Z,7.30
2018-12-11T12:08:24.560Z,3.93
2018-12-11T12:10:50.283Z,16.63
2018-12-11T12:13:15.994Z,5.03
2018-12-11T12:15:41.819Z,7.63
2018-12-11T12:18:07.643Z,9.90
2018-12-11T12:20:33.371Z,6.63
2018-12-11T12:22:59.222Z,4.73
2018-12-11T12:25:24.984Z,5.10
2018-12-11T12:27:50.834Z,5.63
2018-12-11T12:30:16.678Z,5.20
2018-12-11T12:32:42.421Z,7.77
2018-12-11T12:35:08.395Z,5.90
2018-12-11T12:37:34.242Z,4.63
2018-12-11T12:40:00.002Z,7.03
2018-12-11T12:42:25.852Z,7.70
2018-12-11T12:44:51.569Z,5.37
2018-12-11T12:47:17.312Z,8.10
2018-12-11T12:49:43.166Z,3.67
2018-12-11T12:52:09.015Z,5.10
2018-12-11T12:54:34.753Z,7.47
2018-12-11T12:57:00.498Z,5.40
2018-12-11T12:59:26.315Z,5.80
2018-12-11T13:01:52.045Z,7.10
2018-12-11T13:04:17.771Z,3.07
2018-12-11T13:06:43.818Z,3.77
2018-12-11T13:09:09.756Z,5.37
2018-12-11T13:11:35.535Z,4.37
2018-12-11T13:14:01.282Z,5.50
2018-12-11T13:16:27.006Z,5.43
2018-12-11T13:18:52.762Z,4.30
2018-12-11T13:21:18.602Z,4.90
2018-12-11T13:23:51.398Z,5.27
2018-12-11T13:26:17.153Z,4.77
2018-12-11T13:28:42.883Z,4.33
2018-12-11T13:31:08.601Z,4.43
2018-12-11T13:33:34.330Z,7.30
2018-12-11T13:36:00.050Z,5.73
2018-12-11T13:38:25.898Z,7.37
2018-12-11T13:40:52.134Z,6.17
2018-12-11T13:43:17.875Z,5.87
2018-12-11T13:45:43.626Z,5.37
2018-12-11T13:48:09.599Z,6.87
2018-12-11T13:50:35.354Z,6.93
2018-12-11T13:53:01.119Z,6.50
2018-12-11T13:55:26.855Z,6.10
2018-12-11T13:57:52.695Z,5.97
2018-12-11T14:00:18.518Z,6.07
2018-12-11T14:02:44.245Z,5.87
2018-12-11T14:05:10.098Z,5.77
2018-12-11T14:07:35.935Z,6.07
2018-12-11T14:10:01.854Z,5.87
2018-12-11T14:12:27.603Z,4.87
2018-12-11T14:14:53.366Z,3.33
2018-12-11T14:17:19.134Z,5.50
2018-12-11T14:19:44.979Z,6.27
2018-12-11T14:22:10.723Z,3.97
2018-12-11T14:24:36.446Z,3.17
2018-12-11T14:27:02.429Z,4.87
2018-12-11T14:29:28.178Z,4.20
2018-12-11T14:31:53.904Z,4.40
2018-12-11T14:34:19.630Z,8.43
2018-12-11T14:36:45.454Z,12.30
2018-12-11T14:39:11.274Z,18.63
2018-12-11T14:41:44.155Z,9.70
2018-12-11T14:44:09.882Z,7.73
2018-12-11T14:46:35.607Z,5.23
2018-12-11T14:49:01.439Z,7.33
2018-12-11T14:51:27.179Z,4.17
2018-12-11T14:53:53.032Z,5.57
2018-12-11T14:56:18.756Z,6.97
2018-12-11T14:58:44.499Z,4.80
2018-12-11T15:01:10.264Z,5.37
2018-12-11T15:03:36.003Z,6.47
2018-12-11T15:06:01.734Z,5.73
2018-12-11T15:08:27.567Z,5.43
2018-12-11T15:10:53.402Z,10.67
2018-12-11T15:13:19.127Z,6.37
2018-12-11T15:15:44.859Z,6.17
2018-12-11T15:18:10.603Z,6.17
2018-12-11T15:20:36.430Z,5.50
2018-12-11T15:23:02.166Z,6.87
2018-12-11T15:25:34.814Z,4.20
2018-12-11T15:28:00.593Z,5.47
2018-12-11T15:30:26.328Z,11.33
2018-12-11T15:32:52.066Z,6.33
2018-12-11T15:35:17.933Z,5.23
2018-12-11T15:37:43.767Z,5.57
2018-12-11T15:40:09.500Z,5.60
2018-12-11T15:42:35.344Z,5.77
2018-12-11T15:45:01.075Z,6.70
2018-12-11T15:47:26.804Z,6.40
2018-12-11T15:49:53.331Z,6.23
2018-12-11T15:52:19.179Z,5.43
2018-12-11T15:54:44.934Z,5.67
2018-12-11T15:57:10.772Z,5.00
2018-12-11T15:59:36.778Z,4.23
2018-12-11T16:02:02.623Z,5.20
2018-12-11T16:04:28.353Z,3.30
2018-12-11T16:06:54.183Z,3.60
2018-12-11T16:09:21.959Z,4.73
2018-12-11T16:11:47.818Z,6.77
2018-12-11T16:14:13.561Z,4.63
2018-12-11T16:16:39.409Z,4.77
2018-12-11T16:19:05.166Z,5.90
2018-12-11T16:21:30.907Z,8.57
2018-12-11T16:23:56.631Z,4.97
2018-12-11T16:26:22.393Z,4.50
2018-12-11T16:28:48.151Z,6.37
2018-12-11T16:31:13.923Z,3.80
2018-12-11T16:33:39.763Z,6.20
2018-12-11T16:36:05.486Z,7.13
2018-12-11T16:38:31.215Z,4.90
2018-12-11T16:40:56.979Z,5.03
2018-12-11T16:43:22.786Z,4.90
2018-12-11T16:45:48.645Z,6.03
2018-12-11T16:48:21.289Z,7.33
2018-12-11T16:50:47.023Z,7.00
2018-12-11T16:53:13.175Z,7.90
2018-12-11T16:55:39.463Z,4.33
2018-12-11T16:58:05.931Z,5.50
2018-12-11T17:00:31.782Z,4.17
2018-12-11T17:02:57.543Z,5.00
2018-12-11T17:05:30.138Z,4.50
2018-12-11T17:07:56.016Z,4.05
2018-12-11T17:10:21.859Z,3.40
2018-12-11T17:12:50.045Z,4.33
2018-12-11T17:15:16.775Z,4.47
2018-12-11T17:17:42.614Z,3.53
2018-12-11T17:20:08.363Z,3.90
2018-12-11T17:22:34.116Z,4.13
2018-12-11T17:24:59.880Z,4.20
2018-12-11T17:27:25.606Z,6.27
2018-12-11T17:29:51.339Z,5.93
2018-12-11T17:32:17.071Z,5.60
2018-12-11T17:34:42.898Z,5.37
2018-12-11T17:37:08.635Z,4.10
2018-12-11T17:39:34.501Z,5.57
2018-12-11T17:42:00.270Z,6.47
2018-12-11T17:44:26.025Z,4.33
2018-12-11T17:46:51.899Z,6.30
2018-12-11T17:49:17.624Z,4.20
2018-12-11T17:51:43.611Z,5.63
2018-12-11T17:54:09.394Z,4.03
2018-12-11T17:56:35.330Z,5.63
2018-12-11T17:59:01.380Z,5.13
2018-12-11T18:01:29.046Z,5.20
2018-12-11T18:03:54.866Z,2.53
2018-12-11T18:06:20.716Z,1.90
2018-12-11T18:08:46.516Z,3.10
2018-12-11T18:11:12.239Z,2.43
2018-12-11T18:13:38.112Z,3.53
2018-12-11T18:16:04.109Z,3.80
2018-12-11T18:18:29.946Z,2.10
2018-12-11T18:20:55.656Z,1.77
2018-12-11T18:23:21.500Z,2.03
2018-12-11T18:25:47.285Z,2.50
2018-12-11T18:28:13.026Z,4.07
2018-12-11T18:30:38.774Z,5.17
2018-12-11T18:33:04.511Z,4.33
2018-12-11T18:35:30.339Z,4.03
2018-12-11T18:37:56.071Z,3.83
2018-12-11T18:40:21.795Z,6.93
2018-12-11T18:42:47.551Z,3.77
2018-12-11T18:45:13.308Z,4.03
2018-12-11T18:47:39.146Z,3.43
2018-12-11T18:50:12.078Z,5.80
2018-12-11T18:52:37.836Z,10.17
2018-12-11T18:55:03.891Z,3.87
2018-12-11T18:57:29.650Z,4.23
2018-12-11T18:59:55.402Z,5.90
2018-12-11T19:02:21.156Z,7.57
2018-12-11T19:04:46.907Z,4.07
2018-12-11T19:07:19.682Z,5.13
2018-12-11T19:09:45.455Z,4.35
2018-12-11T19:12:11.195Z,5.03
2018-12-11T19:14:37.399Z,4.57
2018-12-11T19:17:03.138Z,5.30
2018-12-11T19:19:28.867Z,5.93
2018-12-11T19:21:54.582Z,7.00
2018-12-11T19:24:20.657Z,5.47
2018-12-11T19:26:46.495Z,6.83
2018-12-11T19:29:12.333Z,9.80
2018-12-11T19:31:38.066Z,8.70
2018-12-11T19:34:03.799Z,10.53
2018-12-11T19:36:29.543Z,13.93
2018-12-11T19:38:55.291Z,10.40
2018-12-11T19:41:22.160Z,7.53
2018-12-11T19:43:48.035Z,6.75
2018-12-11T19:46:13.770Z,9.33
2018-12-11T19:48:39.499Z,5.57
2018-12-11T19:51:05.222Z,6.87
2018-12-11T19:53:31.067Z,6.07
2018-12-11T19:55:58.209Z,6.47
2018-12-11T19:58:24.041Z,9.50
2018-12-11T20:00:49.858Z,7.53
2018-12-11T20:03:15.589Z,7.37
2018-12-11T20:05:41.345Z,7.33
2018-12-11T20:08:14.122Z,8.03
2018-12-11T20:10:39.930Z,7.30
2018-12-11T20:13:05.782Z,9.73
2018-12-11T20:15:31.541Z,6.53
2018-12-11T20:17:57.257Z,8.93
2018-12-11T20:20:24.791Z,8.07
2018-12-11T20:22:50.724Z,6.05
2018-12-11T20:25:16.478Z,7.43
2018-12-11T20:27:42.204Z,4.20
2018-12-11T20:30:07.942Z,5.63
2018-12-11T20:32:33.673Z,6.37
2018-12-11T20:34:59.391Z,7.27
2018-12-11T20:37:25.118Z,8.80
2018-12-11T20:39:51.178Z,12.73
2018-12-11T20:42:16.913Z,8.47
2018-12-11T20:44:42.726Z,8.20
2018-12-11T20:47:08.475Z,5.47
2018-12-11T20:49:34.183Z,4.77
2018-12-11T20:51:59.893Z,3.17
2018-12-11T20:54:25.715Z,4.17
2018-12-11T20:56:51.452Z,5.47
2018-12-11T20:59:17.184Z,6.97
2018-12-11T21:01:42.926Z,5.40
2018-12-11T21:04:08.738Z,4.63
2018-12-11T21:06:34.489Z,7.93
2018-12-11T21:09:00.224Z,7.73
2018-12-11T21:11:25.966Z,5.50
2018-12-11T21:13:51.689Z,5.77
2018-12-11T21:16:17.420Z,8.10
2018-12-11T21:18:43.602Z,13.80
2018-12-11T21:21:09.763Z,21.85
2018-12-11T21:23:35.506Z,13.62
2018-12-11T21:26:01.274Z,15.33
2018-12-11T21:28:26.989Z,11.17
2018-12-11T21:30:52.825Z,16.87
2018-12-11T21:33:18.573Z,22.27
2018-12-11T21:35:44.329Z,25.40
2018-12-11T21:38:10.138Z,8.77
2018-12-11T21:40:35.962Z,13.03
2018-12-11T21:43:01.702Z,9.83
2018-12-11T21:45:27.774Z,8.37
2018-12-11T21:47:53.522Z,11.85
2018-12-11T21:50:19.241Z,19.27
2018-12-11T21:52:44.982Z,27.10
2018-12-11T21:55:18.151Z,15.13
2018-12-11T21:57:43.911Z,12.35
2018-12-11T22:00:10.404Z,11.27
2018-12-11T22:02:36.231Z,6.37
2018-12-11T22:05:03.227Z,10.77
2018-12-11T22:07:29.913Z,8.40
2018-12-11T22:09:55.658Z,8.20
2018-12-11T22:12:22.407Z,6.63
2018-12-11T22:14:48.415Z,4.80
2018-12-11T22:17:14.182Z,5.85
2018-12-11T22:19:40.118Z,7.70
2018-12-11T22:22:05.905Z,7.93
2018-12-11T22:24:31.662Z,6.97
2018-12-11T22:26:57.402Z,8.10
2018-12-11T22:29:23.126Z,5.47
2018-12-11T22:31:48.838Z,8.00
2018-12-11T22:34:14.553Z,6.63
2018-12-11T22:36:40.276Z,6.00
2018-12-11T22:39:06.147Z,9.60
2018-12-11T22:41:31.879Z,7.20
2018-12-11T22:43:57.665Z,6.23
2018-12-11T22:46:23.775Z,6.47
2018-12-11T22:48:49.726Z,5.42
2018-12-11T22:51:15.755Z,7.87
2018-12-11T22:53:41.512Z,6.62
2018-12-11T22:56:07.343Z,6.07
2018-12-11T22:58:33.075Z,6.03
2018-12-11T23:00:58.897Z,4.40
2018-12-11T23:03:24.735Z,5.03
2018-12-11T23:05:50.473Z,6.20
2018-12-11T23:08:16.318Z,5.03
2018-12-11T23:10:42.039Z,7.10
2018-12-11T23:13:07.798Z,4.47
2018-12-11T23:15:33.526Z,6.03
2018-12-11T23:17:59.228Z,9.60
2018-12-11T23:20:24.951Z,6.10
2018-12-11T23:22:51.055Z,3.23
2018-12-11T23:25:17.461Z,7.97
2018-12-11T23:27:43.187Z,5.60
2018-12-11T23:30:09.323Z,5.80
2018-12-11T23:32:35.048Z,4.45
2018-12-11T23:35:01.109Z,4.50
2018-12-11T23:37:26.857Z,4.72
2018-12-11T23:39:52.671Z,6.30
2018-12-11T23:42:18.387Z,6.50
2018-12-11T23:44:44.118Z,5.80
2018-12-11T23:47:09.944Z,5.13
2018-12-11T23:49:35.693Z,7.80
2018-12-11T23:52:02.229Z,4.63
2018-12-11T23:54:28.062Z,5.30
2018-12-11T23:56:53.886Z,4.93
2018-12-11T23:59:19.614Z,6.73
